sensor_id;sensor_type;location;lat;lon;timestamp;P1;durP1;ratioP1;P2;durP2;ratioP2
60241;SDS011;46103;52.076;113.488;2023-05-01T00:01:32;11.50;;;4.35;;
60241;SDS011;46103;52.076;113.488;2023-05-01T00:04:36;12.48;;;4.47;;
60241;SDS011;46103;52.076;113.488;2023-05-01T00:07:40;16.20;;;4.65;;
60241;SDS011;46103;52.076;113.488;2023-05-01T00:10:43;15.38;;;3.72;;
60241;SDS011;46103;52.076;113.488;2023-05-01T00:13:48;20.42;;;3.40;;
60241;SDS011;46103;52.076;113.488;2023-05-01T00:16:52;35.45;;;4.60;;
60241;SDS011;46103;52.076;113.488;2023-05-01T00:19:56;12.57;;;2.95;;
60241;SDS011;46103;52.076;113.488;2023-05-01T00:23:00;11.10;;;2.60;;
60241;SDS011;46103;52.076;113.488;2023-05-01T00:26:04;10.00;;;2.35;;
60241;SDS011;46103;52.076;113.488;2023-05-01T00:29:07;9.40;;;2.50;;
60241;SDS011;46103;52.076;113.488;2023-05-01T00:32:11;6.28;;;2.25;;
60241;SDS011;46103;52.076;113.488;2023-05-01T00:35:15;13.73;;;2.20;;
60241;SDS011;46103;52.076;113.488;2023-05-01T00:38:19;7.47;;;2.28;;
60241;SDS011;46103;52.076;113.488;2023-05-01T00:41:23;10.40;;;2.53;;
60241;SDS011;46103;52.076;113.488;2023-05-01T00:44:26;7.50;;;2.33;;
60241;SDS011;46103;52.076;113.488;2023-05-01T00:47:30;5.85;;;2.03;;
60241;SDS011;46103;52.076;113.488;2023-05-01T00:50:33;6.82;;;2.63;;
60241;SDS011;46103;52.076;113.488;2023-05-01T00:53:36;9.98;;;2.42;;
60241;SDS011;46103;52.076;113.488;2023-05-01T00:56:45;8.93;;;2.92;;
60241;SDS011;46103;52.076;113.488;2023-05-01T00:59:50;9.10;;;2.53;;
60241;SDS011;46103;52.076;113.488;2023-05-01T01:02:53;8.73;;;3.00;;
60241;SDS011;46103;52.076;113.488;2023-05-01T01:06:00;10.45;;;2.70;;
60241;SDS011;46103;52.076;113.488;2023-05-01T01:15:54;5.95;;;2.50;;
60241;SDS011;46103;52.076;113.488;2023-05-01T01:32:53;11.65;;;3.67;;
60241;SDS011;46103;52.076;113.488;2023-05-01T01:36:14;6.30;;;2.80;;
60241;SDS011;46103;52.076;113.488;2023-05-01T01:39:26;11.32;;;3.67;;
60241;SDS011;46103;52.076;113.488;2023-05-01T01:42:43;11.10;;;3.75;;
60241;SDS011;46103;52.076;113.488;2023-05-01T01:45:58;9.90;;;3.38;;
60241;SDS011;46103;52.076;113.488;2023-05-01T01:49:06;10.65;;;3.60;;
60241;SDS011;46103;52.076;113.488;2023-05-01T01:52:15;4.05;;;2.45;;
60241;SDS011;46103;52.076;113.488;2023-05-01T01:55:21;5.65;;;2.60;;
60241;SDS011;46103;52.076;113.488;2023-05-01T01:58:29;7.88;;;2.53;;
60241;SDS011;46103;52.076;113.488;2023-05-01T02:01:34;8.15;;;2.67;;
60241;SDS011;46103;52.076;113.488;2023-05-01T02:04:41;8.68;;;2.83;;
60241;SDS011;46103;52.076;113.488;2023-05-01T02:07:46;8.27;;;3.35;;
60241;SDS011;46103;52.076;113.488;2023-05-01T02:10:52;9.18;;;2.97;;
60241;SDS011;46103;52.076;113.488;2023-05-01T02:14:04;9.57;;;2.67;;
60241;SDS011;46103;52.076;113.488;2023-05-01T02:17:09;8.40;;;3.45;;
60241;SDS011;46103;52.076;113.488;2023-05-01T02:20:13;7.88;;;3.20;;
60241;SDS011;46103;52.076;113.488;2023-05-01T02:23:17;7.03;;;2.33;;
60241;SDS011;46103;52.076;113.488;2023-05-01T02:26:21;6.45;;;2.70;;
60241;SDS011;46103;52.076;113.488;2023-05-01T02:29:28;10.27;;;4.07;;
60241;SDS011;46103;52.076;113.488;2023-05-01T02:32:32;8.63;;;2.80;;
60241;SDS011;46103;52.076;113.488;2023-05-01T02:35:39;10.27;;;2.80;;
60241;SDS011;46103;52.076;113.488;2023-05-01T02:38:50;8.00;;;2.58;;
60241;SDS011;46103;52.076;113.488;2023-05-01T02:41:54;7.03;;;2.80;;
60241;SDS011;46103;52.076;113.488;2023-05-01T02:45:04;5.85;;;2.97;;
60241;SDS011;46103;52.076;113.488;2023-05-01T02:48:10;6.78;;;2.10;;
60241;SDS011;46103;52.076;113.488;2023-05-01T02:51:19;9.95;;;2.60;;
60241;SDS011;46103;52.076;113.488;2023-05-01T02:54:25;8.05;;;2.38;;
60241;SDS011;46103;52.076;113.488;2023-05-01T02:57:31;8.05;;;2.08;;
60241;SDS011;46103;52.076;113.488;2023-05-01T03:00:35;6.45;;;2.15;;
60241;SDS011;46103;52.076;113.488;2023-05-01T03:03:39;6.43;;;2.38;;
60241;SDS011;46103;52.076;113.488;2023-05-01T03:06:43;7.78;;;2.45;;
60241;SDS011;46103;52.076;113.488;2023-05-01T03:09:46;6.97;;;2.63;;
60241;SDS011;46103;52.076;113.488;2023-05-01T03:12:50;12.55;;;3.00;;
60241;SDS011;46103;52.076;113.488;2023-05-01T03:15:54;8.20;;;2.50;;
60241;SDS011;46103;52.076;113.488;2023-05-01T03:18:58;5.53;;;2.00;;
60241;SDS011;46103;52.076;113.488;2023-05-01T03:22:02;6.32;;;2.00;;
60241;SDS011;46103;52.076;113.488;2023-05-01T03:25:06;6.25;;;1.80;;
60241;SDS011;46103;52.076;113.488;2023-05-01T03:28:11;5.05;;;2.42;;
60241;SDS011;46103;52.076;113.488;2023-05-01T03:31:15;9.82;;;2.10;;
60241;SDS011;46103;52.076;113.488;2023-05-01T03:34:24;8.07;;;2.92;;
60241;SDS011;46103;52.076;113.488;2023-05-01T03:37:30;8.57;;;2.22;;
60241;SDS011;46103;52.076;113.488;2023-05-01T03:40:36;9.95;;;2.63;;
60241;SDS011;46103;52.076;113.488;2023-05-01T03:44:02;9.68;;;2.05;;
60241;SDS011;46103;52.076;113.488;2023-05-01T03:47:17;3.88;;;1.85;;
60241;SDS011;46103;52.076;113.488;2023-05-01T03:50:22;3.33;;;1.77;;
60241;SDS011;46103;52.076;113.488;2023-05-01T03:53:25;6.82;;;2.10;;
60241;SDS011;46103;52.076;113.488;2023-05-01T03:56:30;7.95;;;2.38;;
60241;SDS011;46103;52.076;113.488;2023-05-01T03:59:39;6.97;;;2.15;;
60241;SDS011;46103;52.076;113.488;2023-05-01T04:02:46;5.38;;;2.25;;
60241;SDS011;46103;52.076;113.488;2023-05-01T04:05:55;4.57;;;2.40;;
60241;SDS011;46103;52.076;113.488;2023-05-01T04:08:59;11.38;;;2.40;;
60241;SDS011;46103;52.076;113.488;2023-05-01T04:12:04;9.27;;;2.70;;
60241;SDS011;46103;52.076;113.488;2023-05-01T04:15:08;6.60;;;1.75;;
60241;SDS011;46103;52.076;113.488;2023-05-01T04:18:13;9.40;;;1.75;;
60241;SDS011;46103;52.076;113.488;2023-05-01T04:21:17;4.63;;;1.83;;
60241;SDS011;46103;52.076;113.488;2023-05-01T04:24:24;6.80;;;2.63;;
60241;SDS011;46103;52.076;113.488;2023-05-01T04:27:28;11.07;;;2.22;;
60241;SDS011;46103;52.076;113.488;2023-05-01T04:30:32;4.40;;;2.22;;
60241;SDS011;46103;52.076;113.488;2023-05-01T04:33:36;11.38;;;2.60;;
60241;SDS011;46103;52.076;113.488;2023-05-01T04:36:41;4.57;;;1.95;;
60241;SDS011;46103;52.076;113.488;2023-05-01T04:39:45;4.25;;;1.95;;
60241;SDS011;46103;52.076;113.488;2023-05-01T04:42:51;8.95;;;2.80;;
60241;SDS011;46103;52.076;113.488;2023-05-01T04:45:54;7.70;;;1.90;;
60241;SDS011;46103;52.076;113.488;2023-05-01T04:48:57;9.50;;;2.63;;
60241;SDS011;46103;52.076;113.488;2023-05-01T04:52:01;6.88;;;2.10;;
60241;SDS011;46103;52.076;113.488;2023-05-01T04:55:16;6.75;;;2.20;;
60241;SDS011;46103;52.076;113.488;2023-05-01T04:58:35;5.90;;;1.90;;
60241;SDS011;46103;52.076;113.488;2023-05-01T05:01:44;4.93;;;2.10;;
60241;SDS011;46103;52.076;113.488;2023-05-01T05:04:48;4.72;;;2.10;;
60241;SDS011;46103;52.076;113.488;2023-05-01T05:07:53;7.93;;;2.00;;
60241;SDS011;46103;52.076;113.488;2023-05-01T05:10:59;5.50;;;2.65;;
60241;SDS011;46103;52.076;113.488;2023-05-01T05:14:22;5.63;;;2.03;;
60241;SDS011;46103;52.076;113.488;2023-05-01T05:17:27;5.75;;;2.80;;
60241;SDS011;46103;52.076;113.488;2023-05-01T05:20:31;5.85;;;2.00;;
60241;SDS011;46103;52.076;113.488;2023-05-01T05:23:35;6.60;;;2.35;;
60241;SDS011;46103;52.076;113.488;2023-05-01T05:26:40;9.63;;;2.47;;
60241;SDS011;46103;52.076;113.488;2023-05-01T05:29:44;7.32;;;2.40;;
60241;SDS011;46103;52.076;113.488;2023-05-01T05:32:48;7.82;;;2.33;;
60241;SDS011;46103;52.076;113.488;2023-05-01T05:35:51;5.43;;;2.30;;
60241;SDS011;46103;52.076;113.488;2023-05-01T05:39:00;10.52;;;2.80;;
60241;SDS011;46103;52.076;113.488;2023-05-01T05:42:05;7.95;;;2.83;;
60241;SDS011;46103;52.076;113.488;2023-05-01T05:45:10;11.60;;;2.58;;
60241;SDS011;46103;52.076;113.488;2023-05-01T05:48:17;4.55;;;2.20;;
60241;SDS011;46103;52.076;113.488;2023-05-01T05:51:21;7.35;;;2.67;;
60241;SDS011;46103;52.076;113.488;2023-05-01T05:54:26;7.78;;;2.40;;
60241;SDS011;46103;52.076;113.488;2023-05-01T05:57:30;7.65;;;2.60;;
60241;SDS011;46103;52.076;113.488;2023-05-01T06:00:34;7.28;;;2.50;;
60241;SDS011;46103;52.076;113.488;2023-05-01T06:03:39;9.23;;;2.50;;
60241;SDS011;46103;52.076;113.488;2023-05-01T06:06:44;12.13;;;2.65;;
60241;SDS011;46103;52.076;113.488;2023-05-01T06:09:51;5.82;;;2.40;;
60241;SDS011;46103;52.076;113.488;2023-05-01T06:12:55;8.65;;;2.70;;
60241;SDS011;46103;52.076;113.488;2023-05-01T06:16:19;5.75;;;2.60;;
60241;SDS011;46103;52.076;113.488;2023-05-01T06:19:23;6.35;;;2.90;;
60241;SDS011;46103;52.076;113.488;2023-05-01T06:22:36;5.00;;;2.72;;
60241;SDS011;46103;52.076;113.488;2023-05-01T06:25:54;7.95;;;2.58;;
60241;SDS011;46103;52.076;113.488;2023-05-01T06:28:58;7.88;;;2.42;;
60241;SDS011;46103;52.076;113.488;2023-05-01T06:32:02;9.25;;;3.13;;
60241;SDS011;46103;52.076;113.488;2023-05-01T06:35:06;10.30;;;2.80;;
60241;SDS011;46103;52.076;113.488;2023-05-01T06:38:11;12.60;;;2.83;;
60241;SDS011;46103;52.076;113.488;2023-05-01T06:41:15;9.02;;;2.88;;
60241;SDS011;46103;52.076;113.488;2023-05-01T06:44:19;8.25;;;3.33;;
60241;SDS011;46103;52.076;113.488;2023-05-01T06:47:23;6.95;;;3.05;;
60241;SDS011;46103;52.076;113.488;2023-05-01T06:50:28;11.10;;;3.17;;
60241;SDS011;46103;52.076;113.488;2023-05-01T06:53:32;6.32;;;2.78;;
60241;SDS011;46103;52.076;113.488;2023-05-01T06:56:37;8.13;;;2.60;;
60241;SDS011;46103;52.076;113.488;2023-05-01T06:59:41;5.30;;;2.80;;
60241;SDS011;46103;52.076;113.488;2023-05-01T07:02:46;7.38;;;3.22;;
60241;SDS011;46103;52.076;113.488;2023-05-01T07:05:49;8.55;;;3.10;;
60241;SDS011;46103;52.076;113.488;2023-05-01T07:08:53;7.07;;;2.70;;
60241;SDS011;46103;52.076;113.488;2023-05-01T07:11:57;8.38;;;3.03;;
60241;SDS011;46103;52.076;113.488;2023-05-01T07:15:01;10.90;;;3.03;;
60241;SDS011;46103;52.076;113.488;2023-05-01T07:18:04;10.63;;;3.47;;
60241;SDS011;46103;52.076;113.488;2023-05-01T07:21:08;9.90;;;2.95;;
60241;SDS011;46103;52.076;113.488;2023-05-01T07:24:13;9.68;;;2.60;;
60241;SDS011;46103;52.076;113.488;2023-05-01T07:27:16;10.35;;;3.13;;
60241;SDS011;46103;52.076;113.488;2023-05-01T07:30:20;8.15;;;3.00;;
60241;SDS011;46103;52.076;113.488;2023-05-01T07:33:24;8.70;;;2.97;;
60241;SDS011;46103;52.076;113.488;2023-05-01T07:36:28;10.27;;;3.42;;
60241;SDS011;46103;52.076;113.488;2023-05-01T07:39:32;9.73;;;3.30;;
60241;SDS011;46103;52.076;113.488;2023-05-01T07:42:36;8.90;;;3.30;;
60241;SDS011;46103;52.076;113.488;2023-05-01T07:45:40;8.02;;;2.80;;
60241;SDS011;46103;52.076;113.488;2023-05-01T07:48:44;5.78;;;2.90;;
60241;SDS011;46103;52.076;113.488;2023-05-01T07:51:48;10.73;;;3.08;;
60241;SDS011;46103;52.076;113.488;2023-05-01T07:54:52;9.23;;;3.00;;
60241;SDS011;46103;52.076;113.488;2023-05-01T07:57:56;7.50;;;2.60;;
60241;SDS011;46103;52.076;113.488;2023-05-01T08:01:01;6.85;;;2.67;;
60241;SDS011;46103;52.076;113.488;2023-05-01T08:04:05;7.05;;;2.83;;
60241;SDS011;46103;52.076;113.488;2023-05-01T08:07:10;6.65;;;2.58;;
60241;SDS011;46103;52.076;113.488;2023-05-01T08:10:14;5.95;;;2.47;;
60241;SDS011;46103;52.076;113.488;2023-05-01T08:13:18;6.93;;;2.70;;
60241;SDS011;46103;52.076;113.488;2023-05-01T08:16:21;6.63;;;2.40;;
60241;SDS011;46103;52.076;113.488;2023-05-01T08:19:25;7.82;;;2.75;;
60241;SDS011;46103;52.076;113.488;2023-05-01T08:22:29;5.78;;;2.83;;
60241;SDS011;46103;52.076;113.488;2023-05-01T08:25:33;8.00;;;2.90;;
60241;SDS011;46103;52.076;113.488;2023-05-01T08:28:36;4.78;;;2.75;;
60241;SDS011;46103;52.076;113.488;2023-05-01T08:31:40;6.28;;;2.97;;
60241;SDS011;46103;52.076;113.488;2023-05-01T08:34:45;7.47;;;2.80;;
60241;SDS011;46103;52.076;113.488;2023-05-01T08:37:49;12.48;;;3.17;;
60241;SDS011;46103;52.076;113.488;2023-05-01T08:40:52;9.02;;;2.70;;
60241;SDS011;46103;52.076;113.488;2023-05-01T08:43:59;7.10;;;2.42;;
60241;SDS011;46103;52.076;113.488;2023-05-01T08:47:15;5.03;;;2.33;;
60241;SDS011;46103;52.076;113.488;2023-05-01T08:50:20;8.57;;;2.80;;
60241;SDS011;46103;52.076;113.488;2023-05-01T08:53:25;7.47;;;3.10;;
60241;SDS011;46103;52.076;113.488;2023-05-01T08:56:30;9.83;;;3.20;;
60241;SDS011;46103;52.076;113.488;2023-05-01T08:59:38;8.32;;;3.00;;
60241;SDS011;46103;52.076;113.488;2023-05-01T09:02:42;9.90;;;2.80;;
60241;SDS011;46103;52.076;113.488;2023-05-01T09:05:48;12.90;;;3.00;;
60241;SDS011;46103;52.076;113.488;2023-05-01T09:08:56;10.52;;;3.20;;
60241;SDS011;46103;52.076;113.488;2023-05-01T09:12:03;9.32;;;3.50;;
60241;SDS011;46103;52.076;113.488;2023-05-01T09:15:20;7.22;;;3.00;;
60241;SDS011;46103;52.076;113.488;2023-05-01T09:18:24;8.07;;;2.80;;
60241;SDS011;46103;52.076;113.488;2023-05-01T09:21:28;5.40;;;2.13;;
60241;SDS011;46103;52.076;113.488;2023-05-01T09:24:34;11.60;;;3.38;;
60241;SDS011;46103;52.076;113.488;2023-05-01T09:27:37;8.73;;;3.55;;
60241;SDS011;46103;52.076;113.488;2023-05-01T09:30:43;24.60;;;4.80;;
60241;SDS011;46103;52.076;113.488;2023-05-01T09:34:20;7.55;;;3.20;;
60241;SDS011;46103;52.076;113.488;2023-05-01T09:40:33;12.52;;;4.10;;
60241;SDS011;46103;52.076;113.488;2023-05-01T09:43:37;12.02;;;3.95;;
60241;SDS011;46103;52.076;113.488;2023-05-01T09:46:41;19.85;;;3.85;;
60241;SDS011;46103;52.076;113.488;2023-05-01T09:49:46;10.02;;;4.30;;
60241;SDS011;46103;52.076;113.488;2023-05-01T09:52:50;21.35;;;4.47;;
60241;SDS011;46103;52.076;113.488;2023-05-01T09:56:00;18.20;;;4.05;;
60241;SDS011;46103;52.076;113.488;2023-05-01T09:59:19;11.38;;;3.88;;
60241;SDS011;46103;52.076;113.488;2023-05-01T10:02:27;8.68;;;3.95;;
60241;SDS011;46103;52.076;113.488;2023-05-01T10:05:41;12.75;;;4.05;;
60241;SDS011;46103;52.076;113.488;2023-05-01T10:08:49;17.42;;;4.85;;
60241;SDS011;46103;52.076;113.488;2023-05-01T10:11:53;21.08;;;4.38;;
60241;SDS011;46103;52.076;113.488;2023-05-01T10:14:59;11.70;;;4.70;;
60241;SDS011;46103;52.076;113.488;2023-05-01T10:18:23;14.63;;;4.53;;
60241;SDS011;46103;52.076;113.488;2023-05-01T10:21:28;7.60;;;2.97;;
60241;SDS011;46103;52.076;113.488;2023-05-01T10:24:32;9.10;;;3.55;;
60241;SDS011;46103;52.076;113.488;2023-05-01T10:27:36;10.43;;;4.38;;
60241;SDS011;46103;52.076;113.488;2023-05-01T10:30:42;15.32;;;4.28;;
60241;SDS011;46103;52.076;113.488;2023-05-01T10:33:48;14.98;;;5.45;;
60241;SDS011;46103;52.076;113.488;2023-05-01T10:36:55;13.38;;;3.92;;
60241;SDS011;46103;52.076;113.488;2023-05-01T10:43:43;11.98;;;2.45;;
60241;SDS011;46103;52.076;113.488;2023-05-01T10:46:47;8.07;;;2.60;;
60241;SDS011;46103;52.076;113.488;2023-05-01T10:50:07;6.47;;;1.98;;
60241;SDS011;46103;52.076;113.488;2023-05-01T10:59:26;4.68;;;1.48;;
60241;SDS011;46103;52.076;113.488;2023-05-01T11:02:50;7.32;;;1.60;;
60241;SDS011;46103;52.076;113.488;2023-05-01T11:09:52;3.22;;;1.80;;
60241;SDS011;46103;52.076;113.488;2023-05-01T11:15:52;10.73;;;3.08;;
60241;SDS011;46103;52.076;113.488;2023-05-01T11:18:55;10.15;;;3.60;;
60241;SDS011;46103;52.076;113.488;2023-05-01T11:21:59;8.75;;;4.15;;
60241;SDS011;46103;52.076;113.488;2023-05-01T11:25:03;9.55;;;3.00;;
60241;SDS011;46103;52.076;113.488;2023-05-01T11:28:19;3.27;;;1.90;;
60241;SDS011;46103;52.076;113.488;2023-05-01T11:31:27;3.92;;;1.80;;
60241;SDS011;46103;52.076;113.488;2023-05-01T11:34:36;4.53;;;1.55;;
60241;SDS011;46103;52.076;113.488;2023-05-01T11:37:44;1.88;;;1.10;;
60241;SDS011;46103;52.076;113.488;2023-05-01T11:40:52;6.57;;;2.13;;
60241;SDS011;46103;52.076;113.488;2023-05-01T11:43:58;7.85;;;3.10;;
60241;SDS011;46103;52.076;113.488;2023-05-01T11:47:01;7.60;;;3.03;;
60241;SDS011;46103;52.076;113.488;2023-05-01T11:50:06;7.13;;;2.75;;
60241;SDS011;46103;52.076;113.488;2023-05-01T11:53:11;10.85;;;3.60;;
60241;SDS011;46103;52.076;113.488;2023-05-01T11:56:21;6.22;;;3.13;;
60241;SDS011;46103;52.076;113.488;2023-05-01T11:59:28;7.55;;;2.80;;
60241;SDS011;46103;52.076;113.488;2023-05-01T12:02:32;6.78;;;3.33;;
60241;SDS011;46103;52.076;113.488;2023-05-01T12:05:37;6.72;;;3.33;;
60241;SDS011;46103;52.076;113.488;2023-05-01T12:08:43;4.97;;;2.33;;
60241;SDS011;46103;52.076;113.488;2023-05-01T12:11:56;5.82;;;1.70;;
60241;SDS011;46103;52.076;113.488;2023-05-01T12:15:02;4.82;;;1.63;;
60241;SDS011;46103;52.076;113.488;2023-05-01T12:18:06;6.05;;;2.40;;
60241;SDS011;46103;52.076;113.488;2023-05-01T12:21:14;6.63;;;2.97;;
60241;SDS011;46103;52.076;113.488;2023-05-01T12:24:33;2.92;;;1.75;;
60241;SDS011;46103;52.076;113.488;2023-05-01T12:27:41;4.03;;;2.22;;
60241;SDS011;46103;52.076;113.488;2023-05-01T12:30:46;2.75;;;1.27;;
60241;SDS011;46103;52.076;113.488;2023-05-01T12:34:06;5.57;;;2.13;;
60241;SDS011;46103;52.076;113.488;2023-05-01T12:37:10;5.78;;;2.17;;
60241;SDS011;46103;52.076;113.488;2023-05-01T12:40:14;5.68;;;3.08;;
60241;SDS011;46103;52.076;113.488;2023-05-01T12:43:31;9.40;;;3.72;;
60241;SDS011;46103;52.076;113.488;2023-05-01T12:47:01;7.80;;;3.38;;
60241;SDS011;46103;52.076;113.488;2023-05-01T12:53:12;9.13;;;3.97;;
60241;SDS011;46103;52.076;113.488;2023-05-01T12:56:23;8.40;;;4.20;;
60241;SDS011;46103;52.076;113.488;2023-05-01T12:59:27;11.32;;;4.75;;
60241;SDS011;46103;52.076;113.488;2023-05-01T13:02:32;15.57;;;5.35;;
60241;SDS011;46103;52.076;113.488;2023-05-01T13:05:48;8.77;;;3.60;;
60241;SDS011;46103;52.076;113.488;2023-05-01T13:09:08;5.25;;;2.42;;
60241;SDS011;46103;52.076;113.488;2023-05-01T13:12:12;5.43;;;2.10;;
60241;SDS011;46103;52.076;113.488;2023-05-01T13:15:19;6.18;;;2.97;;
60241;SDS011;46103;52.076;113.488;2023-05-01T13:18:23;10.30;;;3.95;;
60241;SDS011;46103;52.076;113.488;2023-05-01T13:21:28;8.43;;;3.72;;
60241;SDS011;46103;52.076;113.488;2023-05-01T13:24:48;7.80;;;3.60;;
60241;SDS011;46103;52.076;113.488;2023-05-01T13:31:12;7.70;;;3.08;;
60241;SDS011;46103;52.076;113.488;2023-05-01T13:34:24;8.93;;;2.97;;
60241;SDS011;46103;52.076;113.488;2023-05-01T13:37:34;9.32;;;4.40;;
60241;SDS011;46103;52.076;113.488;2023-05-01T13:40:39;11.38;;;4.40;;
60241;SDS011;46103;52.076;113.488;2023-05-01T13:43:42;13.68;;;5.15;;
60241;SDS011;46103;52.076;113.488;2023-05-01T13:46:46;10.13;;;3.78;;
60241;SDS011;46103;52.076;113.488;2023-05-01T13:49:50;8.38;;;3.63;;
60241;SDS011;46103;52.076;113.488;2023-05-01T13:52:54;8.82;;;3.03;;
60241;SDS011;46103;52.076;113.488;2023-05-01T13:55:58;9.73;;;3.35;;
60241;SDS011;46103;52.076;113.488;2023-05-01T13:59:02;7.18;;;3.13;;
60241;SDS011;46103;52.076;113.488;2023-05-01T14:02:28;8.88;;;3.60;;
60241;SDS011;46103;52.076;113.488;2023-05-01T14:05:31;5.47;;;2.78;;
60241;SDS011;46103;52.076;113.488;2023-05-01T14:08:35;8.77;;;3.63;;
60241;SDS011;46103;52.076;113.488;2023-05-01T14:11:43;7.57;;;3.47;;
60241;SDS011;46103;52.076;113.488;2023-05-01T14:14:49;9.57;;;4.10;;
60241;SDS011;46103;52.076;113.488;2023-05-01T14:18:13;7.68;;;3.20;;
60241;SDS011;46103;52.076;113.488;2023-05-01T14:21:52;7.43;;;3.20;;
60241;SDS011;46103;52.076;113.488;2023-05-01T14:24:56;10.23;;;3.47;;
60241;SDS011;46103;52.076;113.488;2023-05-01T14:28:14;9.63;;;4.03;;
60241;SDS011;46103;52.076;113.488;2023-05-01T14:31:25;9.20;;;4.43;;
60241;SDS011;46103;52.076;113.488;2023-05-01T14:34:31;9.25;;;3.35;;
60241;SDS011;46103;52.076;113.488;2023-05-01T14:37:40;15.38;;;3.70;;
60241;SDS011;46103;52.076;113.488;2023-05-01T14:41:23;10.73;;;4.28;;
60241;SDS011;46103;52.076;113.488;2023-05-01T14:44:28;5.95;;;2.72;;
60241;SDS011;46103;52.076;113.488;2023-05-01T14:47:31;5.38;;;2.42;;
60241;SDS011;46103;52.076;113.488;2023-05-01T14:50:36;8.23;;;3.28;;
60241;SDS011;46103;52.076;113.488;2023-05-01T14:53:40;6.65;;;2.90;;
60241;SDS011;46103;52.076;113.488;2023-05-01T14:56:47;9.63;;;3.30;;
60241;SDS011;46103;52.076;113.488;2023-05-01T14:59:51;8.93;;;3.50;;
60241;SDS011;46103;52.076;113.488;2023-05-01T15:03:41;8.30;;;3.67;;
60241;SDS011;46103;52.076;113.488;2023-05-01T15:07:28;8.52;;;3.80;;
60241;SDS011;46103;52.076;113.488;2023-05-01T15:10:32;7.13;;;3.30;;
60241;SDS011;46103;52.076;113.488;2023-05-01T15:13:37;8.48;;;3.40;;
60241;SDS011;46103;52.076;113.488;2023-05-01T15:16:42;10.65;;;3.67;;
60241;SDS011;46103;52.076;113.488;2023-05-01T15:19:47;9.85;;;4.03;;
60241;SDS011;46103;52.076;113.488;2023-05-01T15:22:56;9.80;;;4.60;;
60241;SDS011;46103;52.076;113.488;2023-05-01T15:26:00;9.45;;;3.67;;
60241;SDS011;46103;52.076;113.488;2023-05-01T15:29:04;7.38;;;3.63;;
60241;SDS011;46103;52.076;113.488;2023-05-01T15:32:08;9.40;;;4.63;;
60241;SDS011;46103;52.076;113.488;2023-05-01T15:35:14;12.02;;;4.28;;
60241;SDS011;46103;52.076;113.488;2023-05-01T15:38:19;12.88;;;5.20;;
60241;SDS011;46103;52.076;113.488;2023-05-01T15:41:24;14.98;;;6.00;;
60241;SDS011;46103;52.076;113.488;2023-05-01T15:44:29;15.38;;;6.07;;
60241;SDS011;46103;52.076;113.488;2023-05-01T15:47:34;13.23;;;5.35;;
60241;SDS011;46103;52.076;113.488;2023-05-01T15:50:38;15.02;;;5.57;;
60241;SDS011;46103;52.076;113.488;2023-05-01T15:53:42;9.70;;;4.55;;
60241;SDS011;46103;52.076;113.488;2023-05-01T15:56:47;13.82;;;4.53;;
60241;SDS011;46103;52.076;113.488;2023-05-01T15:59:50;10.98;;;4.72;;
60241;SDS011;46103;52.076;113.488;2023-05-01T16:02:59;10.05;;;4.55;;
60241;SDS011;46103;52.076;113.488;2023-05-01T16:06:07;10.88;;;4.63;;
60241;SDS011;46103;52.076;113.488;2023-05-01T16:09:11;10.07;;;4.32;;
60241;SDS011;46103;52.076;113.488;2023-05-01T16:12:15;8.30;;;3.60;;
60241;SDS011;46103;52.076;113.488;2023-05-01T16:15:20;9.88;;;3.53;;
60241;SDS011;46103;52.076;113.488;2023-05-01T16:18:25;12.57;;;4.10;;
60241;SDS011;46103;52.076;113.488;2023-05-01T16:21:29;6.50;;;3.20;;
60241;SDS011;46103;52.076;113.488;2023-05-01T16:24:34;9.95;;;3.95;;
60241;SDS011;46103;52.076;113.488;2023-05-01T16:27:42;10.63;;;4.13;;
60241;SDS011;46103;52.076;113.488;2023-05-01T16:30:49;9.10;;;3.83;;
60241;SDS011;46103;52.076;113.488;2023-05-01T16:33:54;10.20;;;4.90;;
60241;SDS011;46103;52.076;113.488;2023-05-01T16:37:00;12.68;;;4.78;;
60241;SDS011;46103;52.076;113.488;2023-05-01T16:40:05;14.45;;;4.70;;
60241;SDS011;46103;52.076;113.488;2023-05-01T16:43:09;10.85;;;4.13;;
60241;SDS011;46103;52.076;113.488;2023-05-01T16:46:14;6.47;;;2.38;;
60241;SDS011;46103;52.076;113.488;2023-05-01T16:49:21;4.88;;;2.58;;
60241;SDS011;46103;52.076;113.488;2023-05-01T16:52:27;5.07;;;2.15;;
60241;SDS011;46103;52.076;113.488;2023-05-01T16:55:30;6.57;;;2.22;;
60241;SDS011;46103;52.076;113.488;2023-05-01T16:58:34;5.95;;;2.50;;
60241;SDS011;46103;52.076;113.488;2023-05-01T17:01:38;5.93;;;1.90;;
60241;SDS011;46103;52.076;113.488;2023-05-01T17:04:43;5.53;;;2.13;;
60241;SDS011;46103;52.076;113.488;2023-05-01T17:07:47;3.97;;;1.60;;
60241;SDS011;46103;52.076;113.488;2023-05-01T17:10:51;6.05;;;2.00;;
60241;SDS011;46103;52.076;113.488;2023-05-01T17:13:55;3.30;;;1.60;;
60241;SDS011;46103;52.076;113.488;2023-05-01T17:16:59;3.95;;;1.30;;
60241;SDS011;46103;52.076;113.488;2023-05-01T17:20:03;4.55;;;1.60;;
60241;SDS011;46103;52.076;113.488;2023-05-01T17:23:08;5.18;;;1.15;;
60241;SDS011;46103;52.076;113.488;2023-05-01T17:26:13;2.67;;;0.95;;
60241;SDS011;46103;52.076;113.488;2023-05-01T17:29:19;3.35;;;1.10;;
60241;SDS011;46103;52.076;113.488;2023-05-01T17:32:22;2.90;;;1.60;;
60241;SDS011;46103;52.076;113.488;2023-05-01T17:35:38;3.63;;;1.40;;
60241;SDS011;46103;52.076;113.488;2023-05-01T17:38:41;4.55;;;1.70;;
60241;SDS011;46103;52.076;113.488;2023-05-01T17:41:46;4.57;;;1.65;;
60241;SDS011;46103;52.076;113.488;2023-05-01T17:44:51;3.33;;;1.67;;
60241;SDS011;46103;52.076;113.488;2023-05-01T17:47:55;4.47;;;1.88;;
60241;SDS011;46103;52.076;113.488;2023-05-01T17:50:58;5.97;;;2.30;;
60241;SDS011;46103;52.076;113.488;2023-05-01T17:54:01;7.03;;;2.33;;
60241;SDS011;46103;52.076;113.488;2023-05-01T17:57:05;9.95;;;2.50;;
60241;SDS011;46103;52.076;113.488;2023-05-01T18:00:10;5.35;;;2.22;;
60241;SDS011;46103;52.076;113.488;2023-05-01T18:03:14;5.82;;;2.00;;
60241;SDS011;46103;52.076;113.488;2023-05-01T18:06:19;4.47;;;2.05;;
60241;SDS011;46103;52.076;113.488;2023-05-01T18:09:23;2.88;;;1.48;;
60241;SDS011;46103;52.076;113.488;2023-05-01T18:12:27;3.20;;;1.58;;
60241;SDS011;46103;52.076;113.488;2023-05-01T18:15:31;2.50;;;1.30;;
60241;SDS011;46103;52.076;113.488;2023-05-01T18:18:34;3.47;;;1.67;;
60241;SDS011;46103;52.076;113.488;2023-05-01T18:21:38;4.53;;;1.70;;
60241;SDS011;46103;52.076;113.488;2023-05-01T18:24:42;3.65;;;1.63;;
60241;SDS011;46103;52.076;113.488;2023-05-01T18:27:46;4.45;;;2.05;;
60241;SDS011;46103;52.076;113.488;2023-05-01T18:30:51;3.50;;;1.60;;
60241;SDS011;46103;52.076;113.488;2023-05-01T18:33:56;3.35;;;1.48;;
60241;SDS011;46103;52.076;113.488;2023-05-01T18:37:00;3.95;;;1.58;;
60241;SDS011;46103;52.076;113.488;2023-05-01T18:40:04;4.15;;;1.50;;
60241;SDS011;46103;52.076;113.488;2023-05-01T18:43:09;4.55;;;1.75;;
60241;SDS011;46103;52.076;113.488;2023-05-01T18:46:13;8.30;;;1.42;;
60241;SDS011;46103;52.076;113.488;2023-05-01T18:49:18;5.95;;;1.85;;
60241;SDS011;46103;52.076;113.488;2023-05-01T18:52:25;3.60;;;1.63;;
60241;SDS011;46103;52.076;113.488;2023-05-01T18:55:29;2.67;;;1.55;;